sensor_id;sensor_type;location;lat;lon;timestamp;P1;durP1;ratioP1;P2;durP2;ratioP2
49392;SDS011;35268;42.642;23.308;2022-10-16T00:01:41;24.73;;;9.70;;
49392;SDS011;35268;42.642;23.308;2022-10-16T00:04:07;22.60;;;8.70;;
49392;SDS011;35268;42.642;23.308;2022-10-16T00:06:33;19.98;;;8.10;;
49392;SDS011;35268;42.642;23.308;2022-10-16T00:08:59;22.77;;;10.75;;
49392;SDS011;35268;42.642;23.308;2022-10-16T00:11:26;22.45;;;10.60;;
49392;SDS011;35268;42.642;23.308;2022-10-16T00:13:55;22.65;;;8.82;;
49392;SDS011;35268;42.642;23.308;2022-10-16T00:16:22;21.40;;;9.40;;
49392;SDS011;35268;42.642;23.308;2022-10-16T00:18:48;22.90;;;8.93;;
49392;SDS011;35268;42.642;23.308;2022-10-16T00:21:15;16.33;;;7.68;;
49392;SDS011;35268;42.642;23.308;2022-10-16T00:23:43;13.30;;;7.05;;
49392;SDS011;35268;42.642;23.308;2022-10-16T00:26:09;14.23;;;6.70;;
49392;SDS011;35268;42.642;23.308;2022-10-16T00:28:37;14.90;;;7.07;;
49392;SDS011;35268;42.642;23.308;2022-10-16T00:31:04;15.75;;;6.20;;
49392;SDS011;35268;42.642;23.308;2022-10-16T00:33:31;12.38;;;6.55;;
49392;SDS011;35268;42.642;23.308;2022-10-16T00:36:00;13.30;;;5.75;;
49392;SDS011;35268;42.642;23.308;2022-10-16T00:38:27;12.98;;;6.50;;
49392;SDS011;35268;42.642;23.308;2022-10-16T00:40:52;9.00;;;5.53;;
49392;SDS011;35268;42.642;23.308;2022-10-16T00:46:48;13.68;;;7.07;;
49392;SDS011;35268;42.642;23.308;2022-10-16T00:51:43;12.75;;;6.75;;
49392;SDS011;35268;42.642;23.308;2022-10-16T00:56:39;23.13;;;6.95;;
49392;SDS011;35268;42.642;23.308;2022-10-16T00:59:06;13.50;;;6.32;;
49392;SDS011;35268;42.642;23.308;2022-10-16T01:01:38;15.20;;;6.00;;
49392;SDS011;35268;42.642;23.308;2022-10-16T01:04:04;14.13;;;5.97;;
49392;SDS011;35268;42.642;23.308;2022-10-16T01:06:36;15.15;;;7.30;;
49392;SDS011;35268;42.642;23.308;2022-10-16T01:09:23;11.47;;;6.53;;
49392;SDS011;35268;42.642;23.308;2022-10-16T01:14:37;21.42;;;8.75;;
49392;SDS011;35268;42.642;23.308;2022-10-16T01:17:17;11.88;;;5.80;;
49392;SDS011;35268;42.642;23.308;2022-10-16T01:20:00;15.18;;;7.05;;
49392;SDS011;35268;42.642;23.308;2022-10-16T01:22:37;12.77;;;6.90;;
49392;SDS011;35268;42.642;23.308;2022-10-16T01:25:18;9.80;;;5.13;;
49392;SDS011;35268;42.642;23.308;2022-10-16T01:27:55;10.65;;;5.40;;
49392;SDS011;35268;42.642;23.308;2022-10-16T01:30:23;9.38;;;5.50;;
49392;SDS011;35268;42.642;23.308;2022-10-16T01:32:59;8.68;;;5.10;;
49392;SDS011;35268;42.642;23.308;2022-10-16T01:35:41;10.18;;;5.22;;
49392;SDS011;35268;42.642;23.308;2022-10-16T01:40:59;10.38;;;4.82;;
49392;SDS011;35268;42.642;23.308;2022-10-16T01:43:37;7.97;;;4.30;;
49392;SDS011;35268;42.642;23.308;2022-10-16T01:46:07;7.15;;;4.25;;
49392;SDS011;35268;42.642;23.308;2022-10-16T01:48:34;12.30;;;5.40;;
49392;SDS011;35268;42.642;23.308;2022-10-16T01:51:03;10.68;;;5.93;;
49392;SDS011;35268;42.642;23.308;2022-10-16T01:53:33;11.25;;;5.95;;
49392;SDS011;35268;42.642;23.308;2022-10-16T01:55:59;10.02;;;5.28;;
49392;SDS011;35268;42.642;23.308;2022-10-16T01:58:27;10.50;;;5.72;;
49392;SDS011;35268;42.642;23.308;2022-10-16T02:00:55;8.77;;;5.05;;
49392;SDS011;35268;42.642;23.308;2022-10-16T02:03:21;8.93;;;4.60;;
49392;SDS011;35268;42.642;23.308;2022-10-16T02:05:50;9.73;;;5.63;;
49392;SDS011;35268;42.642;23.308;2022-10-16T02:08:18;10.75;;;5.63;;
49392;SDS011;35268;42.642;23.308;2022-10-16T02:10:44;10.75;;;4.95;;
49392;SDS011;35268;42.642;23.308;2022-10-16T02:13:16;14.38;;;5.78;;
49392;SDS011;35268;42.642;23.308;2022-10-16T02:15:45;12.38;;;5.68;;
49392;SDS011;35268;42.642;23.308;2022-10-16T02:18:11;8.32;;;5.03;;
49392;SDS011;35268;42.642;23.308;2022-10-16T02:20:40;11.63;;;5.03;;
49392;SDS011;35268;42.642;23.308;2022-10-16T02:23:25;10.00;;;5.50;;
49392;SDS011;35268;42.642;23.308;2022-10-16T02:26:01;9.45;;;5.30;;
49392;SDS011;35268;42.642;23.308;2022-10-16T02:28:51;10.95;;;5.63;;
49392;SDS011;35268;42.642;23.308;2022-10-16T02:31:22;12.18;;;6.18;;
49392;SDS011;35268;42.642;23.308;2022-10-16T02:33:52;13.02;;;5.57;;
49392;SDS011;35268;42.642;23.308;2022-10-16T02:36:23;10.05;;;5.53;;
49392;SDS011;35268;42.642;23.308;2022-10-16T02:38:49;12.63;;;6.55;;
49392;SDS011;35268;42.642;23.308;2022-10-16T02:41:14;11.95;;;6.13;;
49392;SDS011;35268;42.642;23.308;2022-10-16T02:43:40;11.10;;;6.68;;
49392;SDS011;35268;42.642;23.308;2022-10-16T02:46:05;14.25;;;6.93;;
49392;SDS011;35268;42.642;23.308;2022-10-16T02:48:31;13.38;;;6.53;;
49392;SDS011;35268;42.642;23.308;2022-10-16T02:50:56;15.68;;;8.98;;
49392;SDS011;35268;42.642;23.308;2022-10-16T02:53:22;13.88;;;7.88;;
49392;SDS011;35268;42.642;23.308;2022-10-16T02:55:47;14.20;;;8.13;;
49392;SDS011;35268;42.642;23.308;2022-10-16T02:58:13;16.48;;;8.68;;
49392;SDS011;35268;42.642;23.308;2022-10-16T03:00:38;15.70;;;9.27;;
49392;SDS011;35268;42.642;23.308;2022-10-16T03:03:04;13.25;;;8.20;;
49392;SDS011;35268;42.642;23.308;2022-10-16T03:05:29;19.73;;;9.18;;
49392;SDS011;35268;42.642;23.308;2022-10-16T03:07:55;20.13;;;9.95;;
49392;SDS011;35268;42.642;23.308;2022-10-16T03:10:20;13.88;;;9.13;;
49392;SDS011;35268;42.642;23.308;2022-10-16T03:12:46;15.23;;;8.88;;
49392;SDS011;35268;42.642;23.308;2022-10-16T03:15:11;15.43;;;8.98;;
49392;SDS011;35268;42.642;23.308;2022-10-16T03:17:37;14.32;;;9.23;;
49392;SDS011;35268;42.642;23.308;2022-10-16T03:20:02;14.05;;;8.50;;
49392;SDS011;35268;42.642;23.308;2022-10-16T03:22:28;16.27;;;8.45;;
49392;SDS011;35268;42.642;23.308;2022-10-16T03:24:54;18.55;;;9.73;;
49392;SDS011;35268;42.642;23.308;2022-10-16T03:27:19;14.75;;;8.43;;
49392;SDS011;35268;42.642;23.308;2022-10-16T03:29:45;16.55;;;9.90;;
49392;SDS011;35268;42.642;23.308;2022-10-16T03:32:10;25.02;;;10.48;;
49392;SDS011;35268;42.642;23.308;2022-10-16T03:34:35;14.77;;;9.43;;
49392;SDS011;35268;42.642;23.308;2022-10-16T03:37:01;14.70;;;8.77;;
49392;SDS011;35268;42.642;23.308;2022-10-16T03:39:26;26.45;;;10.60;;
49392;SDS011;35268;42.642;23.308;2022-10-16T03:41:52;18.13;;;10.38;;
49392;SDS011;35268;42.642;23.308;2022-10-16T03:44:17;16.70;;;10.10;;
49392;SDS011;35268;42.642;23.308;2022-10-16T03:46:43;17.58;;;9.23;;
49392;SDS011;35268;42.642;23.308;2022-10-16T03:49:08;20.55;;;8.55;;
49392;SDS011;35268;42.642;23.308;2022-10-16T03:51:34;17.38;;;9.57;;
49392;SDS011;35268;42.642;23.308;2022-10-16T03:53:59;15.07;;;8.63;;
49392;SDS011;35268;42.642;23.308;2022-10-16T03:56:25;22.42;;;10.43;;
49392;SDS011;35268;42.642;23.308;2022-10-16T03:58:50;21.00;;;11.35;;
49392;SDS011;35268;42.642;23.308;2022-10-16T04:01:15;18.38;;;10.95;;
49392;SDS011;35268;42.642;23.308;2022-10-16T04:03:41;20.35;;;10.98;;
49392;SDS011;35268;42.642;23.308;2022-10-16T04:06:06;21.70;;;10.35;;
49392;SDS011;35268;42.642;23.308;2022-10-16T04:08:32;21.77;;;11.00;;
49392;SDS011;35268;42.642;23.308;2022-10-16T04:11:00;21.95;;;10.02;;
49392;SDS011;35268;42.642;23.308;2022-10-16T04:13:26;16.25;;;10.73;;
49392;SDS011;35268;42.642;23.308;2022-10-16T04:15:51;18.13;;;10.23;;
49392;SDS011;35268;42.642;23.308;2022-10-16T04:18:17;20.25;;;11.82;;
49392;SDS011;35268;42.642;23.308;2022-10-16T04:20:42;24.45;;;12.70;;
49392;SDS011;35268;42.642;23.308;2022-10-16T04:23:08;25.38;;;11.18;;
49392;SDS011;35268;42.642;23.308;2022-10-16T04:25:33;16.88;;;10.63;;
49392;SDS011;35268;42.642;23.308;2022-10-16T04:27:59;23.38;;;11.43;;
49392;SDS011;35268;42.642;23.308;2022-10-16T04:30:24;18.67;;;11.38;;
49392;SDS011;35268;42.642;23.308;2022-10-16T04:32:50;22.27;;;11.75;;
49392;SDS011;35268;42.642;23.308;2022-10-16T04:35:17;22.05;;;10.75;;
49392;SDS011;35268;42.642;23.308;2022-10-16T04:37:42;20.00;;;11.07;;
49392;SDS011;35268;42.642;23.308;2022-10-16T04:40:08;20.38;;;11.52;;
49392;SDS011;35268;42.642;23.308;2022-10-16T04:42:34;24.73;;;11.65;;
49392;SDS011;35268;42.642;23.308;2022-10-16T04:44:59;23.80;;;12.13;;
49392;SDS011;35268;42.642;23.308;2022-10-16T04:47:25;22.15;;;12.68;;
49392;SDS011;35268;42.642;23.308;2022-10-16T04:49:50;25.48;;;11.90;;
49392;SDS011;35268;42.642;23.308;2022-10-16T04:52:16;22.02;;;13.32;;
49392;SDS011;35268;42.642;23.308;2022-10-16T04:54:42;21.50;;;12.52;;
49392;SDS011;35268;42.642;23.308;2022-10-16T04:57:09;24.70;;;13.40;;
49392;SDS011;35268;42.642;23.308;2022-10-16T04:59:35;25.20;;;12.50;;
49392;SDS011;35268;42.642;23.308;2022-10-16T05:02:01;37.80;;;12.95;;
49392;SDS011;35268;42.642;23.308;2022-10-16T05:04:26;27.33;;;12.82;;
49392;SDS011;35268;42.642;23.308;2022-10-16T05:06:52;20.52;;;11.13;;
49392;SDS011;35268;42.642;23.308;2022-10-16T05:09:17;24.70;;;12.15;;
49392;SDS011;35268;42.642;23.308;2022-10-16T05:11:42;18.90;;;12.07;;
49392;SDS011;35268;42.642;23.308;2022-10-16T05:14:08;22.13;;;12.10;;
49392;SDS011;35268;42.642;23.308;2022-10-16T05:16:33;21.00;;;11.88;;
49392;SDS011;35268;42.642;23.308;2022-10-16T05:18:59;22.73;;;12.30;;
49392;SDS011;35268;42.642;23.308;2022-10-16T05:21:24;18.60;;;11.57;;
49392;SDS011;35268;42.642;23.308;2022-10-16T05:23:50;19.02;;;11.30;;
49392;SDS011;35268;42.642;23.308;2022-10-16T05:26:15;23.67;;;12.30;;
49392;SDS011;35268;42.642;23.308;2022-10-16T05:28:41;19.80;;;11.40;;
49392;SDS011;35268;42.642;23.308;2022-10-16T05:31:07;19.25;;;10.82;;
49392;SDS011;35268;42.642;23.308;2022-10-16T05:33:33;24.40;;;11.90;;
49392;SDS011;35268;42.642;23.308;2022-10-16T05:36:02;24.65;;;11.23;;
49392;SDS011;35268;42.642;23.308;2022-10-16T05:38:29;20.33;;;10.43;;
49392;SDS011;35268;42.642;23.308;2022-10-16T05:40:55;19.13;;;10.30;;
49392;SDS011;35268;42.642;23.308;2022-10-16T05:43:21;17.63;;;10.18;;
49392;SDS011;35268;42.642;23.308;2022-10-16T05:46:00;20.52;;;10.52;;
49392;SDS011;35268;42.642;23.308;2022-10-16T05:48:27;23.83;;;9.98;;
49392;SDS011;35268;42.642;23.308;2022-10-16T05:50:59;20.23;;;10.40;;
49392;SDS011;35268;42.642;23.308;2022-10-16T05:53:27;21.08;;;10.48;;
49392;SDS011;35268;42.642;23.308;2022-10-16T05:55:54;15.10;;;9.30;;
49392;SDS011;35268;42.642;23.308;2022-10-16T05:58:21;20.48;;;10.18;;
49392;SDS011;35268;42.642;23.308;2022-10-16T06:00:57;20.67;;;11.00;;
49392;SDS011;35268;42.642;23.308;2022-10-16T06:03:24;20.05;;;10.10;;
49392;SDS011;35268;42.642;23.308;2022-10-16T06:05:49;21.08;;;10.43;;
49392;SDS011;35268;42.642;23.308;2022-10-16T06:08:15;19.65;;;10.95;;
49392;SDS011;35268;42.642;23.308;2022-10-16T06:10:41;16.15;;;10.43;;
49392;SDS011;35268;42.642;23.308;2022-10-16T06:13:07;18.40;;;10.90;;
49392;SDS011;35268;42.642;23.308;2022-10-16T06:15:32;19.88;;;11.57;;
49392;SDS011;35268;42.642;23.308;2022-10-16T06:17:58;19.20;;;11.60;;
49392;SDS011;35268;42.642;23.308;2022-10-16T06:20:23;22.23;;;11.73;;
49392;SDS011;35268;42.642;23.308;2022-10-16T06:22:48;24.23;;;12.50;;
49392;SDS011;35268;42.642;23.308;2022-10-16T06:25:14;25.58;;;11.88;;
49392;SDS011;35268;42.642;23.308;2022-10-16T06:27:40;23.60;;;12.23;;
49392;SDS011;35268;42.642;23.308;2022-10-16T06:30:06;24.00;;;13.20;;
49392;SDS011;35268;42.642;23.308;2022-10-16T06:32:32;21.98;;;12.23;;
49392;SDS011;35268;42.642;23.308;2022-10-16T06:34:57;25.55;;;12.57;;
49392;SDS011;35268;42.642;23.308;2022-10-16T06:37:23;22.23;;;11.77;;
49392;SDS011;35268;42.642;23.308;2022-10-16T06:39:49;20.95;;;12.80;;
49392;SDS011;35268;42.642;23.308;2022-10-16T06:42:17;34.08;;;14.32;;
49392;SDS011;35268;42.642;23.308;2022-10-16T06:44:43;29.98;;;13.18;;
49392;SDS011;35268;42.642;23.308;2022-10-16T06:47:08;25.00;;;12.52;;
49392;SDS011;35268;42.642;23.308;2022-10-16T06:49:33;29.23;;;12.52;;
49392;SDS011;35268;42.642;23.308;2022-10-16T06:51:59;22.75;;;12.27;;
49392;SDS011;35268;42.642;23.308;2022-10-16T06:54:24;18.83;;;11.23;;
49392;SDS011;35268;42.642;23.308;2022-10-16T06:56:50;20.90;;;10.65;;
49392;SDS011;35268;42.642;23.308;2022-10-16T06:59:16;16.98;;;10.07;;
49392;SDS011;35268;42.642;23.308;2022-10-16T07:01:41;19.25;;;7.22;;
49392;SDS011;35268;42.642;23.308;2022-10-16T07:04:07;22.23;;;7.55;;
49392;SDS011;35268;42.642;23.308;2022-10-16T07:06:33;12.48;;;6.55;;
49392;SDS011;35268;42.642;23.308;2022-10-16T07:09:00;9.57;;;6.30;;
49392;SDS011;35268;42.642;23.308;2022-10-16T07:11:27;14.52;;;7.28;;
49392;SDS011;35268;42.642;23.308;2022-10-16T07:13:53;18.38;;;6.80;;
49392;SDS011;35268;42.642;23.308;2022-10-16T07:16:19;11.18;;;6.00;;
49392;SDS011;35268;42.642;23.308;2022-10-16T07:18:46;12.30;;;6.05;;
49392;SDS011;35268;42.642;23.308;2022-10-16T07:21:15;12.57;;;6.95;;
49392;SDS011;35268;42.642;23.308;2022-10-16T07:23:42;11.52;;;5.60;;
49392;SDS011;35268;42.642;23.308;2022-10-16T07:26:08;12.88;;;6.57;;
49392;SDS011;35268;42.642;23.308;2022-10-16T07:28:34;14.20;;;6.57;;
49392;SDS011;35268;42.642;23.308;2022-10-16T07:31:04;11.10;;;6.18;;
49392;SDS011;35268;42.642;23.308;2022-10-16T07:33:32;20.60;;;11.32;;
49392;SDS011;35268;42.642;23.308;2022-10-16T07:35:58;12.15;;;6.80;;
49392;SDS011;35268;42.642;23.308;2022-10-16T07:38:23;14.77;;;6.03;;
49392;SDS011;35268;42.642;23.308;2022-10-16T07:40:55;14.73;;;6.05;;
49392;SDS011;35268;42.642;23.308;2022-10-16T07:43:23;9.98;;;5.93;;
49392;SDS011;35268;42.642;23.308;2022-10-16T07:45:49;9.65;;;5.95;;
49392;SDS011;35268;42.642;23.308;2022-10-16T07:48:15;11.27;;;5.57;;
49392;SDS011;35268;42.642;23.308;2022-10-16T07:50:41;9.50;;;5.30;;
49392;SDS011;35268;42.642;23.308;2022-10-16T07:53:07;15.80;;;6.03;;
49392;SDS011;35268;42.642;23.308;2022-10-16T07:55:33;17.60;;;6.25;;
49392;SDS011;35268;42.642;23.308;2022-10-16T07:57:58;17.20;;;6.47;;
49392;SDS011;35268;42.642;23.308;2022-10-16T08:00:24;11.30;;;6.65;;
49392;SDS011;35268;42.642;23.308;2022-10-16T08:02:49;14.30;;;6.68;;
49392;SDS011;35268;42.642;23.308;2022-10-16T08:05:14;13.40;;;6.07;;
49392;SDS011;35268;42.642;23.308;2022-10-16T08:07:40;13.57;;;6.88;;
49392;SDS011;35268;42.642;23.308;2022-10-16T08:10:05;12.48;;;6.07;;
49392;SDS011;35268;42.642;23.308;2022-10-16T08:12:31;20.85;;;6.80;;
49392;SDS011;35268;42.642;23.308;2022-10-16T08:14:56;19.02;;;7.47;;
49392;SDS011;35268;42.642;23.308;2022-10-16T08:17:22;15.75;;;6.43;;
49392;SDS011;35268;42.642;23.308;2022-10-16T08:19:47;12.68;;;6.20;;
49392;SDS011;35268;42.642;23.308;2022-10-16T08:22:13;14.98;;;6.80;;
49392;SDS011;35268;42.642;23.308;2022-10-16T08:24:39;13.27;;;7.18;;
49392;SDS011;35268;42.642;23.308;2022-10-16T08:27:05;12.82;;;6.55;;
49392;SDS011;35268;42.642;23.308;2022-10-16T08:29:32;12.68;;;6.55;;
49392;SDS011;35268;42.642;23.308;2022-10-16T08:31:57;14.43;;;6.13;;
49392;SDS011;35268;42.642;23.308;2022-10-16T08:34:23;13.27;;;6.60;;
49392;SDS011;35268;42.642;23.308;2022-10-16T08:36:48;22.45;;;6.47;;
49392;SDS011;35268;42.642;23.308;2022-10-16T08:39:14;17.45;;;6.00;;
49392;SDS011;35268;42.642;23.308;2022-10-16T08:52:23;9.82;;;4.90;;
49392;SDS011;35268;42.642;23.308;2022-10-16T08:54:53;15.10;;;5.50;;
49392;SDS011;35268;42.642;23.308;2022-10-16T08:57:21;15.77;;;5.53;;
49392;SDS011;35268;42.642;23.308;2022-10-16T08:59:47;13.75;;;4.93;;
49392;SDS011;35268;42.642;23.308;2022-10-16T09:07:32;7.07;;;3.67;;
49392;SDS011;35268;42.642;23.308;2022-10-16T09:12:52;9.93;;;4.40;;
49392;SDS011;35268;42.642;23.308;2022-10-16T09:15:39;8.68;;;3.55;;
49392;SDS011;35268;42.642;23.308;2022-10-16T09:18:18;7.32;;;3.80;;
49392;SDS011;35268;42.642;23.308;2022-10-16T09:23:25;7.65;;;4.22;;
49392;SDS011;35268;42.642;23.308;2022-10-16T09:25:52;9.27;;;3.22;;
49392;SDS011;35268;42.642;23.308;2022-10-16T09:28:20;7.28;;;3.70;;
49392;SDS011;35268;42.642;23.308;2022-10-16T09:30:46;6.35;;;3.35;;
49392;SDS011;35268;42.642;23.308;2022-10-16T09:33:15;7.35;;;3.15;;
49392;SDS011;35268;42.642;23.308;2022-10-16T09:35:44;6.40;;;3.28;;
49392;SDS011;35268;42.642;23.308;2022-10-16T09:43:41;7.30;;;2.58;;
49392;SDS011;35268;42.642;23.308;2022-10-16T09:46:25;5.22;;;3.17;;
49392;SDS011;35268;42.642;23.308;2022-10-16T09:49:00;6.20;;;3.05;;
49392;SDS011;35268;42.642;23.308;2022-10-16T09:51:45;7.57;;;3.67;;
49392;SDS011;35268;42.642;23.308;2022-10-16T09:54:13;8.50;;;4.35;;
49392;SDS011;35268;42.642;23.308;2022-10-16T09:56:40;7.70;;;3.08;;
49392;SDS011;35268;42.642;23.308;2022-10-16T09:59:15;5.45;;;2.97;;
49392;SDS011;35268;42.642;23.308;2022-10-16T10:01:47;7.50;;;2.83;;
49392;SDS011;35268;42.642;23.308;2022-10-16T10:04:15;13.25;;;4.78;;
49392;SDS011;35268;42.642;23.308;2022-10-16T10:07:00;5.25;;;3.00;;
49392;SDS011;35268;42.642;23.308;2022-10-16T10:09:37;6.20;;;3.55;;
49392;SDS011;35268;42.642;23.308;2022-10-16T10:12:05;9.77;;;3.30;;
49392;SDS011;35268;42.642;23.308;2022-10-16T10:14:45;6.28;;;2.85;;
49392;SDS011;35268;42.642;23.308;2022-10-16T10:19:52;6.43;;;3.47;;
49392;SDS011;35268;42.642;23.308;2022-10-16T10:30:44;7.68;;;3.35;;
49392;SDS011;35268;42.642;23.308;2022-10-16T10:39:02;7.30;;;2.88;;
49392;SDS011;35268;42.642;23.308;2022-10-16T10:44:29;5.30;;;2.75;;
49392;SDS011;35268;42.642;23.308;2022-10-16T10:49:52;8.88;;;3.85;;
49392;SDS011;35268;42.642;23.308;2022-10-16T10:52:41;12.95;;;2.88;;
49392;SDS011;35268;42.642;23.308;2022-10-16T10:55:43;7.20;;;3.50;;
49392;SDS011;35268;42.642;23.308;2022-10-16T11:00:53;5.82;;;3.15;;
49392;SDS011;35268;42.642;23.308;2022-10-16T11:09:02;5.82;;;2.60;;
49392;SDS011;35268;42.642;23.308;2022-10-16T11:11:58;4.43;;;2.78;;
49392;SDS011;35268;42.642;23.308;2022-10-16T11:14:31;6.47;;;2.38;;
49392;SDS011;35268;42.642;23.308;2022-10-16T11:17:05;14.13;;;4.28;;
49392;SDS011;35268;42.642;23.308;2022-10-16T11:27:43;3.88;;;2.17;;
49392;SDS011;35268;42.642;23.308;2022-10-16T11:30:22;5.30;;;2.08;;
49392;SDS011;35268;42.642;23.308;2022-10-16T11:35:38;4.20;;;2.22;;
49392;SDS011;35268;42.642;23.308;2022-10-16T11:40:54;5.60;;;2.10;;
49392;SDS011;35268;42.642;23.308;2022-10-16T11:43:26;5.70;;;2.20;;
49392;SDS011;35268;42.642;23.308;2022-10-16T11:45:59;6.57;;;2.25;;
49392;SDS011;35268;42.642;23.308;2022-10-16T11:48:48;7.50;;;1.77;;
49392;SDS011;35268;42.642;23.308;2022-10-16T11:56:41;3.78;;;1.85;;
49392;SDS011;35268;42.642;23.308;2022-10-16T11:59:16;4.28;;;1.80;;
49392;SDS011;35268;42.642;23.308;2022-10-16T12:01:45;4.13;;;1.92;;
49392;SDS011;35268;42.642;23.308;2022-10-16T12:04:19;4.57;;;1.90;;
49392;SDS011;35268;42.642;23.308;2022-10-16T12:06:57;3.45;;;1.88;;
49392;SDS011;35268;42.642;23.308;2022-10-16T12:09:32;4.85;;;2.00;;
49392;SDS011;35268;42.642;23.308;2022-10-16T12:12:00;4.13;;;1.52;;
49392;SDS011;35268;42.642;23.308;2022-10-16T12:17:03;3.25;;;1.70;;
49392;SDS011;35268;42.642;23.308;2022-10-16T12:30:40;2.65;;;1.80;;
49392;SDS011;35268;42.642;23.308;2022-10-16T12:35:57;7.43;;;1.77;;
49392;SDS011;35268;42.642;23.308;2022-10-16T12:38:26;5.63;;;1.92;;
49392;SDS011;35268;42.642;23.308;2022-10-16T12:41:02;3.22;;;1.75;;
49392;SDS011;35268;42.642;23.308;2022-10-16T12:48:37;4.03;;;1.65;;
49392;SDS011;35268;42.642;23.308;2022-10-16T12:51:37;4.15;;;1.80;;
49392;SDS011;35268;42.642;23.308;2022-10-16T13:16:26;5.22;;;2.08;;
49392;SDS011;35268;42.642;23.308;2022-10-16T13:27:02;5.53;;;1.90;;
49392;SDS011;35268;42.642;23.308;2022-10-16T13:29:47;4.13;;;2.10;;
49392;SDS011;35268;42.642;23.308;2022-10-16T13:32:18;4.75;;;2.00;;
49392;SDS011;35268;42.642;23.308;2022-10-16T13:34:45;5.38;;;2.10;;
49392;SDS011;35268;42.642;23.308;2022-10-16T13:37:16;10.80;;;2.78;;
49392;SDS011;35268;42.642;23.308;2022-10-16T13:39:48;4.75;;;2.20;;
49392;SDS011;35268;42.642;23.308;2022-10-16T13:42:26;4.07;;;2.10;;
49392;SDS011;35268;42.642;23.308;2022-10-16T13:44:53;8.23;;;2.35;;
49392;SDS011;35268;42.642;23.308;2022-10-16T13:47:24;3.38;;;2.00;;
49392;SDS011;35268;42.642;23.308;2022-10-16T13:52:26;6.80;;;2.88;;
49392;SDS011;35268;42.642;23.308;2022-10-16T13:54:52;10.90;;;3.10;;
49392;SDS011;35268;42.642;23.308;2022-10-16T13:57:17;6.68;;;3.05;;
49392;SDS011;35268;42.642;23.308;2022-10-16T13:59:46;5.55;;;2.78;;
49392;SDS011;35268;42.642;23.308;2022-10-16T14:02:17;4.43;;;2.40;;
49392;SDS011;35268;42.642;23.308;2022-10-16T14:04:50;6.43;;;2.22;;
49392;SDS011;35268;42.642;23.308;2022-10-16T14:07:22;7.18;;;2.60;;
49392;SDS011;35268;42.642;23.308;2022-10-16T14:09:50;7.40;;;3.22;;
49392;SDS011;35268;42.642;23.308;2022-10-16T14:12:17;6.07;;;2.95;;
49392;SDS011;35268;42.642;23.308;2022-10-16T14:14:43;8.77;;;3.08;;
49392;SDS011;35268;42.642;23.308;2022-10-16T14:17:30;7.45;;;2.88;;
49392;SDS011;35268;42.642;23.308;2022-10-16T14:19:59;5.35;;;2.97;;
49392;SDS011;35268;42.642;23.308;2022-10-16T14:25:29;9.55;;;4.13;;
49392;SDS011;35268;42.642;23.308;2022-10-16T14:28:00;12.55;;;4.57;;
49392;SDS011;35268;42.642;23.308;2022-10-16T14:30:28;12.10;;;5.65;;
49392;SDS011;35268;42.642;23.308;2022-10-16T14:32:56;10.90;;;4.85;;
49392;SDS011;35268;42.642;23.308;2022-10-16T14:35:33;9.48;;;5.32;;
49392;SDS011;35268;42.642;23.308;2022-10-16T14:38:00;10.25;;;5.57;;
49392;SDS011;35268;42.642;23.308;2022-10-16T14:40:31;15.52;;;5.38;;
49392;SDS011;35268;42.642;23.308;2022-10-16T14:42:58;13.05;;;4.55;;
49392;SDS011;35268;42.642;23.308;2022-10-16T14:45:26;8.18;;;4.30;;
49392;SDS011;35268;42.642;23.308;2022-10-16T14:47:56;10.38;;;3.75;;
49392;SDS011;35268;42.642;23.308;2022-10-16T14:50:23;5.93;;;2.60;;
49392;SDS011;35268;42.642;23.308;2022-10-16T14:52:49;4.53;;;2.10;;
49392;SDS011;35268;42.642;23.308;2022-10-16T14:55:14;5.47;;;2.67;;
49392;SDS011;35268;42.642;23.308;2022-10-16T14:57:40;4.63;;;2.53;;
49392;SDS011;35268;42.642;23.308;2022-10-16T15:02:44;7.70;;;2.42;;
49392;SDS011;35268;42.642;23.308;2022-10-16T15:07:49;7.38;;;2.35;;
49392;SDS011;35268;42.642;23.308;2022-10-16T15:10:16;5.60;;;2.75;;
49392;SDS011;35268;42.642;23.308;2022-10-16T15:12:42;8.95;;;2.55;;
49392;SDS011;35268;42.642;23.308;2022-10-16T15:15:15;8.23;;;3.28;;
49392;SDS011;35268;42.642;23.308;2022-10-16T15:17:53;11.50;;;2.97;;
49392;SDS011;35268;42.642;23.308;2022-10-16T15:20:25;8.77;;;2.75;;
49392;SDS011;35268;42.642;23.308;2022-10-16T15:22:53;9.02;;;3.63;;
49392;SDS011;35268;42.642;23.308;2022-10-16T15:28:00;15.07;;;6.70;;
49392;SDS011;35268;42.642;23.308;2022-10-16T15:30:26;14.10;;;7.53;;
49392;SDS011;35268;42.642;23.308;2022-10-16T15:32:52;17.60;;;8.57;;
49392;SDS011;35268;42.642;23.308;2022-10-16T15:35:17;18.50;;;8.52;;
49392;SDS011;35268;42.642;23.308;2022-10-16T15:37:43;21.08;;;9.20;;
49392;SDS011;35268;42.642;23.308;2022-10-16T15:40:09;26.05;;;12.02;;
49392;SDS011;35268;42.642;23.308;2022-10-16T15:42:35;23.85;;;11.07;;
49392;SDS011;35268;42.642;23.308;2022-10-16T15:45:00;25.73;;;10.95;;
49392;SDS011;35268;42.642;23.308;2022-10-16T15:47:26;31.48;;;11.82;;
49392;SDS011;35268;42.642;23.308;2022-10-16T15:49:52;25.67;;;11.60;;
49392;SDS011;35268;42.642;23.308;2022-10-16T15:52:17;18.45;;;9.40;;
49392;SDS011;35268;42.642;23.308;2022-10-16T15:54:43;28.23;;;11.32;;
49392;SDS011;35268;42.642;23.308;2022-10-16T15:57:08;18.05;;;9.85;;
49392;SDS011;35268;42.642;23.308;2022-10-16T15:59:34;20.90;;;8.27;;
49392;SDS011;35268;42.642;23.308;2022-10-16T16:01:59;12.82;;;6.63;;
49392;SDS011;35268;42.642;23.308;2022-10-16T16:04:25;14.30;;;6.40;;
49392;SDS011;35268;42.642;23.308;2022-10-16T16:06:51;14.52;;;6.55;;
49392;SDS011;35268;42.642;23.308;2022-10-16T16:09:16;12.80;;;6.28;;
49392;SDS011;35268;42.642;23.308;2022-10-16T16:11:41;11.07;;;5.47;;
49392;SDS011;35268;42.642;23.308;2022-10-16T16:14:09;10.07;;;5.72;;
49392;SDS011;35268;42.642;23.308;2022-10-16T16:16:37;12.70;;;6.63;;
49392;SDS011;35268;42.642;23.308;2022-10-16T16:19:03;11.88;;;6.72;;
49392;SDS011;35268;42.642;23.308;2022-10-16T16:21:31;12.70;;;6.57;;
49392;SDS011;35268;42.642;23.308;2022-10-16T16:23:57;15.23;;;6.60;;
49392;SDS011;35268;42.642;23.308;2022-10-16T16:26:29;10.80;;;5.65;;
49392;SDS011;35268;42.642;23.308;2022-10-16T16:29:01;10.57;;;6.13;;
49392;SDS011;35268;42.642;23.308;2022-10-16T16:31:28;13.63;;;7.70;;
49392;SDS011;35268;42.642;23.308;2022-10-16T16:33:54;12.18;;;6.28;;
49392;SDS011;35268;42.642;23.308;2022-10-16T16:36:21;20.25;;;6.50;;
49392;SDS011;35268;42.642;23.308;2022-10-16T16:38:47;13.35;;;7.15;;
49392;SDS011;35268;42.642;23.308;2022-10-16T16:41:14;14.52;;;7.80;;
49392;SDS011;35268;42.642;23.308;2022-10-16T16:43:44;17.95;;;8.38;;
49392;SDS011;35268;42.642;23.308;2022-10-16T16:46:10;17.27;;;8.10;;
49392;SDS011;35268;42.642;23.308;2022-10-16T16:48:37;15.43;;;7.55;;
49392;SDS011;35268;42.642;23.308;2022-10-16T16:51:04;15.88;;;7.68;;
49392;SDS011;35268;42.642;23.308;2022-10-16T16:53:34;18.67;;;9.68;;
49392;SDS011;35268;42.642;23.308;2022-10-16T16:56:03;27.38;;;10.32;;
49392;SDS011;35268;42.642;23.308;2022-10-16T16:58:30;23.75;;;12.43;;
49392;SDS011;35268;42.642;23.308;2022-10-16T17:00:57;33.05;;;12.68;;
49392;SDS011;35268;42.642;23.308;2022-10-16T17:03:26;25.33;;;11.32;;
49392;SDS011;35268;42.642;23.308;2022-10-16T17:05:59;33.78;;;12.65;;